createdAt,value
2019-04-03T00:00:42.590Z,37.73
2019-04-03T00:03:16.151Z,62.10
2019-04-03T00:05:49.958Z,44.87
2019-04-03T00:08:23.502Z,44.50
2019-04-03T00:10:57.140Z,31.90
2019-04-03T00:13:32.273Z,45.27
2019-04-03T00:16:06.048Z,62.70
2019-04-03T00:18:40.745Z,52.20
2019-04-03T00:21:15.727Z,48.98
2019-04-03T00:23:49.414Z,51.83
2019-04-03T00:26:22.955Z,41.53
2019-04-03T00:28:56.286Z,28.07
2019-04-03T00:31:30.086Z,44.03
2019-04-03T00:34:04.392Z,57.97
2019-04-03T00:36:38.240Z,59.57
2019-04-03T00:39:11.712Z,54.37
2019-04-03T00:41:45.436Z,51.37
2019-04-03T00:44:20.989Z,45.43
2019-04-03T00:46:56.912Z,47.77
2019-04-03T00:49:32.633Z,55.27
2019-04-03T00:52:46.809Z,54.20
2019-04-03T00:55:20.535Z,46.93
2019-04-03T00:57:56.071Z,53.93
2019-04-03T01:00:30.524Z,57.80
2019-04-03T01:03:04.219Z,40.90
2019-04-03T01:05:37.891Z,61.30
2019-04-03T01:08:11.508Z,46.87
2019-04-03T01:10:45.099Z,55.13
2019-04-03T01:13:19.577Z,39.37
2019-04-03T01:15:53.235Z,58.40
2019-04-03T01:18:29.976Z,56.60
2019-04-03T01:21:06.007Z,46.70
2019-04-03T01:23:40.260Z,56.90
2019-04-03T01:26:13.542Z,48.33
2019-04-03T01:28:48.283Z,38.53
2019-04-03T01:31:21.645Z,53.27
2019-04-03T01:33:55.393Z,44.50
2019-04-03T01:36:32.137Z,47.00
2019-04-03T01:39:06.686Z,48.17
2019-04-03T01:41:40.271Z,50.80
2019-04-03T01:44:13.865Z,41.42
2019-04-03T01:46:48.787Z,42.27
2019-04-03T01:49:22.277Z,56.27
2019-04-03T01:51:55.762Z,48.37
2019-04-03T01:54:29.090Z,42.27
2019-04-03T01:57:02.883Z,55.30
2019-04-03T01:59:37.574Z,62.53
2019-04-03T02:02:11.328Z,37.57
2019-04-03T02:04:46.455Z,45.53
2019-04-03T02:07:19.815Z,49.60
2019-04-03T02:09:53.335Z,45.50
2019-04-03T02:12:27.022Z,50.63
2019-04-03T02:15:00.886Z,46.00
2019-04-03T02:17:34.627Z,55.93
2019-04-03T02:20:08.293Z,48.93
2019-04-03T02:22:41.696Z,43.05
2019-04-03T02:25:15.497Z,45.37
2019-04-03T02:27:49.053Z,45.67
2019-04-03T02:30:22.758Z,44.57
2019-04-03T02:32:57.344Z,63.03
2019-04-03T02:35:31.366Z,45.63
2019-04-03T02:38:04.835Z,48.17
2019-04-03T02:40:40.606Z,51.77
2019-04-03T02:43:15.444Z,54.60
2019-04-03T02:45:49.168Z,53.43
2019-04-03T02:48:22.944Z,52.67
2019-04-03T02:50:58.446Z,47.37
2019-04-03T02:53:33.115Z,51.77
2019-04-03T02:56:11.631Z,48.53
2019-04-03T02:58:42.759Z,52.23
2019-04-03T03:01:16.489Z,50.00
2019-04-03T03:03:50.758Z,47.07
2019-04-03T03:06:25.164Z,53.40
2019-04-03T03:08:59.866Z,48.23
2019-04-03T03:11:33.932Z,53.17
2019-04-03T03:14:08.998Z,49.37
2019-04-03T03:16:42.866Z,45.33
2019-04-03T03:19:17.527Z,42.93
2019-04-03T03:21:54.372Z,47.23
2019-04-03T03:24:30.046Z,47.80
2019-04-03T03:27:06.127Z,51.00
2019-04-03T03:29:39.570Z,52.33
2019-04-03T03:32:19.916Z,61.05
2019-04-03T03:34:57.380Z,52.87
2019-04-03T03:37:23.210Z,44.70
2019-04-03T03:39:58.809Z,42.40
2019-04-03T03:42:34.213Z,55.77
2019-04-03T03:45:11.122Z,46.10
2019-04-03T03:47:45.746Z,37.50
2019-04-03T03:50:24.867Z,50.85
2019-04-03T03:53:00.415Z,45.23
2019-04-03T03:55:36.465Z,42.10
2019-04-03T03:58:12.145Z,52.77
2019-04-03T04:00:51.080Z,45.07
2019-04-03T04:03:21.608Z,46.70
2019-04-03T04:05:56.670Z,45.13
2019-04-03T04:08:33.144Z,44.03
2019-04-03T04:11:07.550Z,48.40
2019-04-03T04:13:41.150Z,41.10
2019-04-03T04:16:15.343Z,38.02
2019-04-03T04:18:50.180Z,53.43
2019-04-03T04:21:24.002Z,38.13
2019-04-03T04:23:58.637Z,40.17
2019-04-03T04:26:32.780Z,39.73
2019-04-03T04:29:10.170Z,35.73
2019-04-03T04:31:43.442Z,49.00
2019-04-03T04:34:18.835Z,37.13
2019-04-03T04:36:55.344Z,42.35
2019-04-03T04:39:28.461Z,36.77
2019-04-03T04:42:04.365Z,34.43
2019-04-03T04:44:37.127Z,36.03
2019-04-03T04:47:10.605Z,34.40
2019-04-03T04:49:44.473Z,37.33
2019-04-03T04:52:18.100Z,45.87
2019-04-03T04:54:51.770Z,34.67
2019-04-03T04:57:25.541Z,37.07
2019-04-03T04:59:59.059Z,34.83
2019-04-03T05:02:33.709Z,31.40
2019-04-03T05:05:09.239Z,34.70
2019-04-03T05:07:43.190Z,27.37
2019-04-03T05:10:17.986Z,34.83
2019-04-03T05:12:51.686Z,39.53
2019-04-03T05:15:25.093Z,48.23
2019-04-03T05:17:59.011Z,56.50
2019-04-03T05:20:33.053Z,34.40
2019-04-03T05:23:06.757Z,49.47
2019-04-03T05:25:42.655Z,35.87
2019-04-03T05:28:18.203Z,31.25
2019-04-03T05:30:51.825Z,26.53
2019-04-03T05:33:25.435Z,41.23
2019-04-03T05:36:00.059Z,35.43
2019-04-03T05:38:33.779Z,29.77
2019-04-03T05:41:07.634Z,32.83
2019-04-03T05:43:40.991Z,28.83
2019-04-03T05:46:15.076Z,23.47
2019-04-03T05:48:49.097Z,23.40
2019-04-03T05:51:22.912Z,32.63
2019-04-03T05:53:58.884Z,33.33
2019-04-03T05:56:32.727Z,23.90
2019-04-03T05:59:06.509Z,25.57
2019-04-03T06:01:41.961Z,28.10
2019-04-03T06:04:19.806Z,21.40
2019-04-03T06:06:54.568Z,28.87
2019-04-03T06:09:29.930Z,31.00
2019-04-03T06:12:03.472Z,21.70
2019-04-03T06:14:39.128Z,28.83
2019-04-03T06:17:13.033Z,28.93
2019-04-03T06:19:46.962Z,30.25
2019-04-03T06:22:21.980Z,24.35
2019-04-03T06:24:56.949Z,32.97
2019-04-03T06:27:30.914Z,33.77
2019-04-03T06:30:05.442Z,34.80
2019-04-03T06:32:39.643Z,28.57
2019-04-03T06:35:14.401Z,31.95
2019-04-03T06:37:48.246Z,22.95
2019-04-03T06:40:22.065Z,27.17
2019-04-03T06:42:55.731Z,35.30
2019-04-03T06:45:29.469Z,26.60
2019-04-03T06:48:05.132Z,26.17
2019-04-03T06:50:38.184Z,31.77
2019-04-03T06:53:11.887Z,25.90
2019-04-03T06:55:45.999Z,26.80
2019-04-03T06:58:19.850Z,30.23
2019-04-03T07:00:54.782Z,27.63
2019-04-03T07:03:28.266Z,24.67
2019-04-03T07:06:04.441Z,26.63
2019-04-03T07:08:40.911Z,23.93
2019-04-03T07:11:23.114Z,25.82
2019-04-03T07:13:53.009Z,24.17
2019-04-03T07:16:25.109Z,25.00
2019-04-03T07:18:58.827Z,21.73
2019-04-03T07:21:34.561Z,26.43
2019-04-03T07:24:08.464Z,24.63
2019-04-03T07:26:42.746Z,23.50
2019-04-03T07:29:17.398Z,28.07
2019-04-03T07:31:55.174Z,22.67
2019-04-03T07:34:29.088Z,28.03
2019-04-03T07:37:02.742Z,20.50
2019-04-03T07:39:36.415Z,32.97
2019-04-03T07:42:10.111Z,25.00
2019-04-03T07:44:43.774Z,26.37
2019-04-03T07:47:19.026Z,33.70
2019-04-03T07:49:52.645Z,24.25
2019-04-03T07:52:26.419Z,23.55
2019-04-03T07:55:00.200Z,32.23
2019-04-03T07:57:33.965Z,25.43
2019-04-03T08:00:09.521Z,33.30
2019-04-03T08:02:47.919Z,23.10
2019-04-03T08:05:19.693Z,25.82
2019-04-03T08:07:53.474Z,29.10
2019-04-03T08:10:29.371Z,41.23
2019-04-03T08:13:02.214Z,32.67
2019-04-03T08:15:35.985Z,30.83
2019-04-03T08:18:10.270Z,40.50
2019-04-03T08:20:44.073Z,36.93
2019-04-03T08:23:18.100Z,31.73
2019-04-03T08:25:53.921Z,31.77
2019-04-03T08:28:29.532Z,34.87
2019-04-03T08:31:01.354Z,32.60
2019-04-03T08:33:35.287Z,41.60
2019-04-03T08:36:09.077Z,36.57
2019-04-03T08:38:44.029Z,33.00
2019-04-03T08:41:37.393Z,31.90
2019-04-03T08:44:12.248Z,35.43
2019-04-03T08:46:46.398Z,48.75
2019-04-03T08:49:25.348Z,41.28
2019-04-03T08:51:57.369Z,37.53
2019-04-03T08:54:32.077Z,45.50
2019-04-03T08:57:05.682Z,37.20
2019-04-03T08:59:40.391Z,43.10
2019-04-03T09:02:14.531Z,38.45
2019-04-03T09:04:48.790Z,32.70
2019-04-03T09:07:24.714Z,39.67
2019-04-03T09:10:00.593Z,45.87
2019-04-03T09:12:33.013Z,38.20
2019-04-03T09:15:07.636Z,50.70
2019-04-03T09:17:43.779Z,30.30
2019-04-03T09:20:17.599Z,35.85
2019-04-03T09:22:52.992Z,37.60
2019-04-03T09:25:27.824Z,28.53
2019-04-03T09:28:01.834Z,35.03
2019-04-03T09:30:35.853Z,40.83
2019-04-03T09:33:09.236Z,32.87
2019-04-03T09:35:43.323Z,27.43
2019-04-03T09:38:16.700Z,41.57
2019-04-03T09:40:50.581Z,37.48
2019-04-03T09:43:24.789Z,35.77
2019-04-03T09:46:00.349Z,37.03
2019-04-03T09:48:34.855Z,34.27
2019-04-03T09:51:09.824Z,29.50
2019-04-03T09:53:43.383Z,39.00
2019-04-03T09:56:16.981Z,36.43
2019-04-03T09:58:51.171Z,43.60
2019-04-03T10:01:27.108Z,34.73
2019-04-03T10:04:01.061Z,39.37
2019-04-03T10:06:35.316Z,32.97
2019-04-03T10:09:11.893Z,34.17
2019-04-03T10:11:45.518Z,37.50
2019-04-03T10:14:25.750Z,48.10
2019-04-03T10:17:01.593Z,38.67
2019-04-03T10:19:39.105Z,36.77
2019-04-03T10:22:14.077Z,33.80
2019-04-03T10:24:48.681Z,38.15
2019-04-03T10:27:25.111Z,31.67
2019-04-03T10:29:59.852Z,34.92
2019-04-03T10:32:35.598Z,31.03
2019-04-03T10:35:10.390Z,30.20
2019-04-03T10:37:46.314Z,33.30
2019-04-03T10:40:19.956Z,45.08
2019-04-03T10:42:54.048Z,38.73
2019-04-03T10:45:30.294Z,37.07
2019-04-03T10:48:03.946Z,34.23
2019-04-03T10:50:38.277Z,40.43
2019-04-03T10:53:19.190Z,38.83
2019-04-03T10:55:51.591Z,41.40
2019-04-03T10:58:27.224Z,34.83
2019-04-03T11:01:03.565Z,34.20
2019-04-03T11:03:35.972Z,45.10
2019-04-03T11:06:11.756Z,38.20
2019-04-03T11:08:45.516Z,44.50
2019-04-03T11:11:19.210Z,48.25
2019-04-03T11:13:57.072Z,40.97
2019-04-03T11:16:31.022Z,40.10
2019-04-03T11:19:06.627Z,39.67
2019-04-03T11:21:43.343Z,56.97
2019-04-03T11:24:16.857Z,36.05
2019-04-03T11:26:52.055Z,39.95
2019-04-03T11:29:27.716Z,42.60
2019-04-03T11:32:02.270Z,47.70
2019-04-03T11:34:37.908Z,50.53
2019-04-03T11:37:12.706Z,37.40
2019-04-03T11:40:03.706Z,49.40
2019-04-03T11:42:34.347Z,47.93
2019-04-03T11:45:23.935Z,48.90
2019-04-03T11:48:01.336Z,52.27
2019-04-03T11:50:38.918Z,59.00
2019-04-03T11:53:17.420Z,62.07
2019-04-03T11:56:00.970Z,46.93
2019-04-03T12:01:33.147Z,53.00
2019-04-03T12:04:10.549Z,56.20
2019-04-03T12:06:55.240Z,57.67
2019-04-03T12:09:31.606Z,59.47
2019-04-03T12:12:09.368Z,53.10
2019-04-03T12:14:46.798Z,65.55
2019-04-03T12:17:23.943Z,53.80
2019-04-03T12:20:02.284Z,59.38
2019-04-03T12:22:38.521Z,58.60
2019-04-03T12:25:15.173Z,48.67
2019-04-03T12:28:08.739Z,61.97
2019-04-03T12:30:43.001Z,54.80
2019-04-03T12:33:23.253Z,51.56
2019-04-03T12:35:58.538Z,56.43
2019-04-03T12:38:33.017Z,55.13
2019-04-03T12:41:07.685Z,61.27
2019-04-03T12:43:42.825Z,58.73
2019-04-03T12:46:17.423Z,52.80
2019-04-03T12:48:52.304Z,58.50
2019-04-03T12:51:27.024Z,54.67
2019-04-03T12:54:02.093Z,65.33
2019-04-03T12:56:36.262Z,63.73
2019-04-03T12:59:10.638Z,73.10
2019-04-03T13:01:50.227Z,65.90
2019-04-03T13:04:31.176Z,85.20
2019-04-03T13:07:05.344Z,65.07
2019-04-03T13:09:40.401Z,69.87
2019-04-03T13:12:15.161Z,66.13
2019-04-03T13:14:50.815Z,54.67
2019-04-03T13:17:27.903Z,58.55
2019-04-03T13:20:05.932Z,65.10
2019-04-03T13:22:42.605Z,66.07
2019-04-03T13:25:37.920Z,63.60
2019-04-03T13:28:14.049Z,74.22
2019-04-03T13:30:49.030Z,55.80
2019-04-03T13:33:24.410Z,73.03
2019-04-03T13:39:21.155Z,56.50
2019-04-03T13:44:26.063Z,67.97
2019-04-03T13:46:58.738Z,60.23
2019-04-03T13:49:34.867Z,58.67
2019-04-03T13:52:09.989Z,53.00
2019-04-03T13:54:46.797Z,54.23
2019-04-03T13:57:21.608Z,52.00
2019-04-03T14:00:01.011Z,55.85
2019-04-03T14:02:32.168Z,65.23
2019-04-03T14:05:09.961Z,78.83
2019-04-03T14:07:44.971Z,75.23
2019-04-03T14:10:20.863Z,78.90
2019-04-03T14:12:55.675Z,60.20
2019-04-03T14:15:31.549Z,69.27
2019-04-03T14:18:07.891Z,63.53
2019-04-03T14:20:45.756Z,71.67
2019-04-03T14:23:40.994Z,57.83
2019-04-03T14:26:15.214Z,57.07
2019-04-03T14:28:50.260Z,62.20
2019-04-03T14:31:34.330Z,58.17
2019-04-03T14:34:01.761Z,56.50
2019-04-03T14:36:36.905Z,70.00
2019-04-03T14:39:11.614Z,55.23
2019-04-03T14:41:46.433Z,61.27
2019-04-03T14:44:40.518Z,63.78
2019-04-03T14:47:15.763Z,60.10
2019-04-03T14:49:51.046Z,59.83
2019-04-03T14:52:24.954Z,72.90
2019-04-03T14:55:14.790Z,65.17
2019-04-03T14:57:35.907Z,59.93
2019-04-03T15:00:25.123Z,75.43
2019-04-03T15:02:46.930Z,63.73
2019-04-03T15:05:20.823Z,69.25
2019-04-03T15:07:55.296Z,55.47
2019-04-03T15:10:30.626Z,62.87
2019-04-03T15:13:04.254Z,65.33
2019-04-03T15:15:37.955Z,57.90
2019-04-03T15:18:12.031Z,60.97
2019-04-03T15:20:48.691Z,57.00
2019-04-03T15:23:20.925Z,78.30
2019-04-03T15:25:54.984Z,60.40
2019-04-03T15:28:30.567Z,74.37
2019-04-03T15:31:03.649Z,75.43
2019-04-03T15:33:37.442Z,69.70
2019-04-03T15:36:11.326Z,64.37
2019-04-03T15:38:46.264Z,58.33
2019-04-03T15:41:28.642Z,59.23
2019-04-03T15:44:01.913Z,50.85
2019-04-03T15:46:36.065Z,63.47
2019-04-03T15:49:10.018Z,74.87
2019-04-03T15:51:44.217Z,63.78
2019-04-03T15:54:18.499Z,61.27
2019-04-03T15:56:52.996Z,59.87
2019-04-03T15:59:29.017Z,59.10
2019-04-03T16:02:04.927Z,58.93
2019-04-03T16:04:39.737Z,61.60
2019-04-03T16:07:14.935Z,65.73
2019-04-03T16:13:17.574Z,65.70
2019-04-03T16:15:54.411Z,73.87
2019-04-03T16:18:26.568Z,68.90
2019-04-03T16:21:00.426Z,61.97
2019-04-03T16:23:36.301Z,57.80
2019-04-03T16:26:29.161Z,62.20
2019-04-03T16:29:04.083Z,60.33
2019-04-03T16:31:39.561Z,59.33
2019-04-03T16:34:13.110Z,71.57
2019-04-03T16:36:49.718Z,60.45
2019-04-03T16:39:23.584Z,67.67
2019-04-03T16:41:57.276Z,59.00
2019-04-03T16:44:31.192Z,64.67
2019-04-03T16:47:05.020Z,49.93
2019-04-03T16:49:38.601Z,67.60
2019-04-03T16:52:12.727Z,61.37
2019-04-03T16:54:46.496Z,69.82
2019-04-03T16:57:22.204Z,68.90
2019-04-03T16:59:55.415Z,73.97
2019-04-03T17:02:29.950Z,68.97
2019-04-03T17:05:03.828Z,67.07
2019-04-03T17:07:38.149Z,57.13
2019-04-03T17:10:12.576Z,69.37
2019-04-03T17:12:48.001Z,75.25
2019-04-03T17:15:22.309Z,67.40
2019-04-03T17:17:56.015Z,60.75
2019-04-03T17:20:29.776Z,67.80
2019-04-03T17:23:03.396Z,62.23
2019-04-03T17:25:45.887Z,64.43
2019-04-03T17:28:11.553Z,59.33
2019-04-03T17:30:45.183Z,62.52
2019-04-03T17:33:18.917Z,61.63
2019-04-03T17:35:52.429Z,52.43
2019-04-03T17:38:26.188Z,66.50
2019-04-03T17:41:00.068Z,74.70
2019-04-03T17:43:34.816Z,68.70
2019-04-03T17:46:15.804Z,66.30
2019-04-03T17:48:49.094Z,75.33
2019-04-03T17:51:22.934Z,74.83
2019-04-03T17:53:56.319Z,74.17
2019-04-03T17:56:31.452Z,70.07
2019-04-03T17:59:05.017Z,70.40
2019-04-03T18:01:40.963Z,81.50
2019-04-03T18:04:14.666Z,73.62
2019-04-03T18:06:48.455Z,65.20
2019-04-03T18:09:22.144Z,86.92
2019-04-03T18:11:57.845Z,74.43
2019-04-03T18:14:30.343Z,68.43
2019-04-03T18:17:03.772Z,80.73
2019-04-03T18:19:38.054Z,83.58
2019-04-03T18:22:12.923Z,74.67
2019-04-03T18:24:46.601Z,80.53
2019-04-03T18:27:20.369Z,71.03
2019-04-03T18:29:54.302Z,81.00
2019-04-03T18:32:29.771Z,77.93
2019-04-03T18:35:06.793Z,68.60
2019-04-03T18:37:40.913Z,74.47
2019-04-03T18:40:16.106Z,82.77
2019-04-03T18:42:50.189Z,75.60
2019-04-03T18:45:25.445Z,77.23
2019-04-03T18:48:00.286Z,69.93
2019-04-03T18:50:35.251Z,80.63
2019-04-03T18:53:12.393Z,75.33
2019-04-03T18:55:46.107Z,67.10
2019-04-03T18:58:19.738Z,75.53
2019-04-03T19:00:55.175Z,69.67
2019-04-03T19:03:28.809Z,76.37
2019-04-03T19:06:03.825Z,70.90
2019-04-03T19:08:38.582Z,83.40
2019-04-03T19:11:26.688Z,79.77
2019-04-03T19:14:27.095Z,73.40
2019-04-03T19:16:54.684Z,60.75
2019-04-03T19:19:28.561Z,70.67
2019-04-03T19:22:02.041Z,77.20
2019-04-03T19:24:37.148Z,74.45
2019-04-03T19:27:10.554Z,76.33
2019-04-03T19:29:44.109Z,73.07
2019-04-03T19:32:17.828Z,79.22
2019-04-03T19:34:52.395Z,80.00
2019-04-03T19:37:26.108Z,77.77
2019-04-03T19:40:01.366Z,72.03
2019-04-03T19:42:34.510Z,81.97
2019-04-03T19:45:12.630Z,69.93
2019-04-03T19:47:44.516Z,79.90
2019-04-03T19:50:18.606Z,70.20
2019-04-03T19:52:53.196Z,78.67
2019-04-03T19:55:26.995Z,87.03
2019-04-03T19:58:00.897Z,81.27
2019-04-03T20:00:34.970Z,74.07
2019-04-03T20:03:16.150Z,70.67
2019-04-03T20:05:59.521Z,76.47
2019-04-03T20:08:30.670Z,66.23
2019-04-03T20:11:05.168Z,78.43
2019-04-03T20:13:39.891Z,76.57
2019-04-03T20:16:13.879Z,79.30
2019-04-03T20:18:47.791Z,66.90
2019-04-03T20:21:21.347Z,70.83
2019-04-03T20:23:54.872Z,72.07
2019-04-03T20:26:28.582Z,68.83
2019-04-03T20:29:02.447Z,75.47
2019-04-03T20:31:36.385Z,80.80
2019-04-03T20:34:12.828Z,75.50
2019-04-03T20:36:44.927Z,84.17
2019-04-03T20:39:18.473Z,80.20
2019-04-03T20:41:52.287Z,72.77
2019-04-03T20:44:25.710Z,84.43
2019-04-03T20:46:59.358Z,79.70
2019-04-03T20:49:33.829Z,87.37
2019-04-03T20:52:10.680Z,88.90
2019-04-03T20:54:42.491Z,78.10
2019-04-03T20:57:15.935Z,86.35
2019-04-03T20:59:58.740Z,86.10
2019-04-03T21:02:25.707Z,83.07
2019-04-03T21:04:59.445Z,80.67
2019-04-03T21:07:32.925Z,81.83
2019-04-03T21:10:07.951Z,68.17
2019-04-03T21:12:41.407Z,78.83
2019-04-03T21:15:15.642Z,87.37
2019-04-03T21:17:50.058Z,79.77
2019-04-03T21:20:24.337Z,94.57
2019-04-03T21:22:58.131Z,86.63
2019-04-03T21:25:31.768Z,79.57
2019-04-03T21:28:06.258Z,76.07
2019-04-03T21:30:41.502Z,75.50
2019-04-03T21:33:17.150Z,94.47
2019-04-03T21:35:49.845Z,89.73
2019-04-03T21:38:23.672Z,78.17
2019-04-03T21:40:57.115Z,90.05
2019-04-03T21:43:30.870Z,85.37
2019-04-03T21:46:11.735Z,76.30
2019-04-03T21:48:45.260Z,92.10
2019-04-03T21:51:20.659Z,89.23
2019-04-03T21:53:55.959Z,81.63
2019-04-03T21:56:47.907Z,88.05
2019-04-03T21:59:21.103Z,97.33
2019-04-03T22:01:55.597Z,94.17
2019-04-03T22:04:29.297Z,89.63
2019-04-03T22:07:03.073Z,94.03
2019-04-03T22:09:37.126Z,86.47
2019-04-03T22:12:10.845Z,83.97
2019-04-03T22:14:44.659Z,93.60
2019-04-03T22:17:21.623Z,97.10
2019-04-03T22:19:53.407Z,82.20
2019-04-03T22:22:26.945Z,94.20
2019-04-03T22:25:00.567Z,93.93
2019-04-03T22:27:36.934Z,92.57
2019-04-03T22:30:11.022Z,114.77
2019-04-03T22:32:44.870Z,106.70
2019-04-03T22:35:18.063Z,88.67
2019-04-03T22:37:53.177Z,107.22
2019-04-03T22:40:26.734Z,91.45
2019-04-03T22:43:00.362Z,95.43
2019-04-03T22:45:35.445Z,94.93
2019-04-03T22:48:09.238Z,84.33
2019-04-03T22:50:42.948Z,90.53
2019-04-03T22:53:17.118Z,93.33
2019-04-03T22:55:51.899Z,79.85
2019-04-03T22:58:25.746Z,92.33
2019-04-03T23:01:00.749Z,78.37
2019-04-03T23:03:34.761Z,87.37
2019-04-03T23:06:08.588Z,77.53
2019-04-03T23:08:42.280Z,78.47
2019-04-03T23:11:17.441Z,77.23
2019-04-03T23:13:50.996Z,81.87
2019-04-03T23:16:24.529Z,79.03
2019-04-03T23:18:58.797Z,92.73
2019-04-03T23:21:33.927Z,91.93
2019-04-03T23:24:07.250Z,78.73
2019-04-03T23:26:40.634Z,78.73
2019-04-03T23:29:14.259Z,82.80
2019-04-03T23:31:47.769Z,93.63
2019-04-03T23:34:21.414Z,71.90
2019-04-03T23:36:56.839Z,87.87
2019-04-03T23:39:31.696Z,83.87
2019-04-03T23:42:06.989Z,77.63
2019-04-03T23:44:42.072Z,83.93
2019-04-03T23:47:16.568Z,86.82
2019-04-03T23:49:51.172Z,78.75
2019-04-03T23:52:25.273Z,69.63
2019-04-03T23:54:58.759Z,71.20
2019-04-03T23:57:32.548Z,79.67
